Terminal Aerodrome Forecast
Issued by NWS

Home | Current Version | Previous Version | Text Only | Print | Product List | Glossary On
Versions: 1 2 3 4 5 6 7 8 9 10 11 12 13 14
922
FTUS46 KMTR 251806 AAA
TAFSNS
TAF AMD
KSNS 251806Z 2518/2618 VRB03KT P6SM SKC
     FM252100 28006KT P6SM SKC
     FM252300 27011KT P6SM SKC
     FM260300 27006KT P6SM SKC
     FM260600 28003KT P6SM FEW025 SCT150
     FM260900 15003KT P6SM SCT025 OVC100
     FM261300 14006KT P6SM -RA OVC015=

USA.gov is the U.S. government's official web portal to all federal, state and local government web resources and services.